createdAt,value
2023-04-21T00:01:55.667Z,99513.71
2023-04-21T00:04:24.168Z,99510.96
2023-04-21T00:06:53.512Z,99513.37
2023-04-21T00:09:22.726Z,99513.98
2023-04-21T00:11:50.790Z,99508.07
2023-04-21T00:14:19.039Z,99507.62
2023-04-21T00:16:47.766Z,99506.88
2023-04-21T00:19:16.269Z,99506.30
2023-04-21T00:21:44.499Z,99507.83
2023-04-21T00:24:12.514Z,99505.73
2023-04-21T00:26:40.594Z,99507.86
2023-04-21T00:29:08.824Z,99511.31
2023-04-21T00:31:37.173Z,99510.89
2023-04-21T00:34:06.508Z,99515.61
2023-04-21T00:36:34.785Z,99508.61
2023-04-21T00:39:04.048Z,99512.75
2023-04-21T00:41:32.102Z,99511.69
2023-04-21T00:44:41.934Z,99517.23
2023-04-21T00:47:10.204Z,99515.91
2023-04-21T00:49:38.569Z,99509.77
2023-04-21T00:52:06.704Z,99508.91
2023-04-21T00:54:38.401Z,99508.30
2023-04-21T00:57:10.271Z,99509.14
2023-04-21T00:59:38.553Z,99510.40
2023-04-21T01:02:07.168Z,99507.26
2023-04-21T01:04:40.342Z,99503.33
2023-04-21T01:07:10.235Z,99499.04
2023-04-21T01:09:38.560Z,99498.10
2023-04-21T01:12:08.994Z,99494.89
2023-04-21T01:14:38.969Z,99498.04
2023-04-21T01:17:08.252Z,99496.36
2023-04-21T01:19:42.033Z,99499.09
2023-04-21T01:22:13.939Z,99500.27
2023-04-21T01:24:43.688Z,99497.21
2023-04-21T01:27:14.739Z,99501.39
2023-04-21T01:29:43.583Z,99497.38
2023-04-21T01:32:13.908Z,99495.87
2023-04-21T01:34:42.008Z,99496.98
2023-04-21T01:37:12.818Z,99496.13
2023-04-21T01:39:46.368Z,99495.39
2023-04-21T01:42:14.703Z,99490.39
2023-04-21T01:44:43.598Z,99490.99
2023-04-21T01:47:11.645Z,99498.46
2023-04-21T01:49:41.203Z,99492.32
2023-04-21T01:52:09.352Z,99490.14
2023-04-21T01:54:37.647Z,99488.23
2023-04-21T01:57:07.081Z,99485.16
2023-04-21T01:59:35.306Z,99483.16
2023-04-21T02:02:04.239Z,99486.45
2023-04-21T02:04:35.216Z,99482.23
2023-04-21T02:07:03.728Z,99480.71
2023-04-21T02:09:32.048Z,99481.13
2023-04-21T02:12:00.585Z,99480.61
2023-04-21T02:14:28.770Z,99476.44
2023-04-21T02:16:57.555Z,99475.19
2023-04-21T02:19:25.724Z,99469.40
2023-04-21T02:21:56.459Z,99466.69
2023-04-21T02:24:24.484Z,99464.27
2023-04-21T02:26:54.460Z,99470.08
2023-04-21T02:29:22.726Z,99466.31
2023-04-21T02:31:59.332Z,99464.05
2023-04-21T02:34:29.967Z,99461.50
2023-04-21T02:36:59.458Z,99458.39
2023-04-21T02:39:27.732Z,99461.02
2023-04-21T02:41:56.052Z,99462.04
2023-04-21T02:44:24.175Z,99462.41
2023-04-21T02:46:52.386Z,99462.23
2023-04-21T02:49:22.024Z,99457.83
2023-04-21T02:51:50.448Z,99457.17
2023-04-21T02:54:18.610Z,99455.86
2023-04-21T02:56:46.825Z,99457.98
2023-04-21T02:59:16.839Z,99458.34
2023-04-21T03:01:46.514Z,99455.02
2023-04-21T03:04:14.752Z,99455.61
2023-04-21T03:06:43.004Z,99457.73
2023-04-21T03:09:11.555Z,99455.99
2023-04-21T03:11:39.832Z,99456.30
2023-04-21T03:14:08.019Z,99456.29
2023-04-21T03:16:36.474Z,99455.46
2023-04-21T03:19:04.879Z,99458.77
2023-04-21T03:21:32.963Z,99459.31
2023-04-21T03:24:01.617Z,99457.62
2023-04-21T03:26:30.778Z,99459.79
2023-04-21T03:28:59.833Z,99460.21
2023-04-21T03:31:28.308Z,99457.77
2023-04-21T03:33:56.433Z,99463.33
2023-04-21T03:36:24.758Z,99464.39
2023-04-21T03:38:52.900Z,99464.54
2023-04-21T03:41:21.131Z,99462.13
2023-04-21T03:43:52.307Z,99455.19
2023-04-21T03:46:21.414Z,99452.59
2023-04-21T03:48:49.745Z,99455.74
2023-04-21T03:51:17.879Z,99457.59
2023-04-21T03:53:46.127Z,99455.04
2023-04-21T03:56:14.267Z,99454.94
2023-04-21T03:58:42.905Z,99450.02
2023-04-21T04:01:11.057Z,99453.67
2023-04-21T04:03:39.611Z,99450.78
2023-04-21T04:06:08.253Z,99449.02
2023-04-21T04:08:36.787Z,99445.62
2023-04-21T04:11:05.157Z,99445.46
2023-04-21T04:13:33.291Z,99441.54
2023-04-21T04:16:01.680Z,99441.71
2023-04-21T04:18:30.279Z,99447.22
2023-04-21T04:20:58.423Z,99441.80
2023-04-21T04:23:27.067Z,99440.99
2023-04-21T04:25:56.244Z,99446.48
2023-04-21T04:28:24.372Z,99449.31
2023-04-21T04:30:53.227Z,99450.45
2023-04-21T04:33:21.983Z,99453.66
2023-04-21T04:35:51.350Z,99452.84
2023-04-21T04:38:19.901Z,99449.89
2023-04-21T04:40:54.313Z,99451.08
2023-04-21T04:43:23.607Z,99455.02
2023-04-21T04:45:52.160Z,99455.52
2023-04-21T04:48:20.266Z,99452.73
2023-04-21T04:50:48.397Z,99451.84
2023-04-21T04:53:16.761Z,99453.50
2023-04-21T04:55:45.022Z,99447.39
2023-04-21T04:58:13.524Z,99451.41
2023-04-21T05:00:41.635Z,99452.05
2023-04-21T05:03:10.191Z,99459.52
2023-04-21T05:05:38.516Z,99460.77
2023-04-21T05:08:07.366Z,99462.46
2023-04-21T05:10:35.894Z,99458.57
2023-04-21T05:13:04.096Z,99464.23
2023-04-21T05:15:36.798Z,99461.29
2023-04-21T05:18:05.721Z,99461.70
2023-04-21T05:20:33.951Z,99460.26
2023-04-21T05:23:02.384Z,99459.64
2023-04-21T05:25:30.668Z,99461.23
2023-04-21T05:27:58.891Z,99446.19
2023-04-21T05:30:27.160Z,99443.98
2023-04-21T05:32:55.482Z,99441.11
2023-04-21T05:35:23.572Z,99435.59
2023-04-21T05:37:51.693Z,99434.14
2023-04-21T05:40:19.958Z,99440.83
2023-04-21T05:42:48.444Z,99438.40
2023-04-21T05:45:16.718Z,99433.29
2023-04-21T05:47:44.934Z,99429.64
2023-04-21T05:50:13.315Z,99424.95
2023-04-21T05:52:41.674Z,99424.06
2023-04-21T05:55:10.039Z,99416.85
2023-04-21T05:57:38.437Z,99418.34
2023-04-21T06:00:07.538Z,99421.46
2023-04-21T06:02:36.185Z,99420.61
2023-04-21T06:05:05.622Z,99419.61
2023-04-21T06:07:37.299Z,99419.08
2023-04-21T06:10:06.569Z,99418.52
2023-04-21T06:12:34.772Z,99416.83
2023-04-21T06:15:03.099Z,99410.84
2023-04-21T06:17:31.526Z,99408.93
2023-04-21T06:20:00.000Z,99406.96
2023-04-21T06:22:28.367Z,99416.10
2023-04-21T06:24:57.565Z,99412.63
2023-04-21T06:27:26.702Z,99411.23
2023-04-21T06:29:56.095Z,99414.25
2023-04-21T06:32:24.189Z,99409.24
2023-04-21T06:34:53.033Z,99409.31
2023-04-21T06:37:21.207Z,99407.06
2023-04-21T06:39:49.516Z,99407.64
2023-04-21T06:42:17.967Z,99406.64
2023-04-21T06:44:47.398Z,99404.69
2023-04-21T06:47:17.243Z,99405.39
2023-04-21T06:49:46.125Z,99402.80
2023-04-21T06:52:14.792Z,99402.79
2023-04-21T06:54:42.941Z,99400.59
2023-04-21T06:57:11.624Z,99407.00
2023-04-21T06:59:39.803Z,99405.27
2023-04-21T07:02:08.018Z,99412.83
2023-04-21T07:04:37.220Z,99413.73
2023-04-21T07:07:05.679Z,99409.55
2023-04-21T07:09:34.161Z,99409.30
2023-04-21T07:12:03.093Z,99409.68
2023-04-21T07:14:31.373Z,99399.38
2023-04-21T07:16:59.710Z,99397.11
2023-04-21T07:19:28.391Z,99399.34
2023-04-21T07:21:56.572Z,99399.29
2023-04-21T07:24:24.842Z,99398.89
2023-04-21T07:26:53.011Z,99402.64
2023-04-21T07:29:21.555Z,99402.70
2023-04-21T07:31:49.700Z,99396.35
2023-04-21T07:34:17.770Z,99391.57
2023-04-21T07:36:46.136Z,99392.34
2023-04-21T07:39:14.267Z,99407.02
2023-04-21T07:41:42.476Z,99402.50
2023-04-21T07:44:10.750Z,99405.05
2023-04-21T07:46:39.152Z,99403.77
2023-04-21T07:49:07.517Z,99401.14
2023-04-21T07:51:37.437Z,99400.04
2023-04-21T07:54:05.849Z,99404.54
2023-04-21T07:56:49.230Z,99407.17
2023-04-21T07:59:17.475Z,99402.11
2023-04-21T08:01:46.313Z,99393.61
2023-04-21T08:04:14.972Z,99392.88
2023-04-21T08:06:56.509Z,99388.50
2023-04-21T08:09:29.389Z,99381.92
2023-04-21T08:12:04.906Z,99380.78
2023-04-21T08:14:35.054Z,99392.05
2023-04-21T08:17:04.281Z,99395.02
2023-04-21T08:19:32.317Z,99391.90
2023-04-21T08:22:00.925Z,99383.96
2023-04-21T08:24:29.382Z,99384.70
2023-04-21T08:26:57.973Z,99389.27
2023-04-21T08:29:26.263Z,99393.77
2023-04-21T08:31:54.549Z,99391.27
2023-04-21T08:34:24.983Z,99389.02
2023-04-21T08:36:54.866Z,99397.93
2023-04-21T08:39:23.071Z,99393.67
2023-04-21T08:41:53.072Z,99401.86
2023-04-21T08:44:21.745Z,99392.89
2023-04-21T08:46:53.213Z,99399.99
2023-04-21T08:49:21.715Z,99405.39
2023-04-21T08:51:50.150Z,99397.84
2023-04-21T08:54:18.297Z,99394.45
2023-04-21T08:56:48.182Z,99393.65
2023-04-21T08:59:16.848Z,99400.21
2023-04-21T09:02:11.125Z,99400.80
2023-04-21T09:04:41.291Z,99409.27
2023-04-21T09:07:10.044Z,99412.20
2023-04-21T09:09:55.539Z,99398.20
2023-04-21T09:12:24.871Z,99400.08
2023-04-21T09:14:53.321Z,99401.72
2023-04-21T09:17:23.690Z,99400.20
2023-04-21T09:19:52.433Z,99404.05
2023-04-21T09:22:20.848Z,99397.27
2023-04-21T09:24:49.301Z,99404.73
2023-04-21T09:27:17.772Z,99410.34
2023-04-21T09:29:48.421Z,99405.58
2023-04-21T09:32:20.190Z,99423.35
2023-04-21T09:34:48.383Z,99430.30
2023-04-21T09:37:18.818Z,99426.44
2023-04-21T09:40:03.656Z,99428.56
2023-04-21T09:42:36.130Z,99423.00
2023-04-21T09:45:32.497Z,99412.52
2023-04-21T09:48:01.844Z,99414.77
2023-04-21T09:53:02.609Z,99424.17
2023-04-21T09:55:31.314Z,99417.30
2023-04-21T09:58:00.992Z,99412.16
2023-04-21T10:00:31.196Z,99414.52
2023-04-21T10:02:59.516Z,99432.05
2023-04-21T10:05:28.263Z,99420.35
2023-04-21T10:07:56.576Z,99427.19
2023-04-21T10:10:29.121Z,99426.85
2023-04-21T10:12:57.429Z,99428.10
2023-04-21T10:15:33.163Z,99433.84
2023-04-21T10:18:23.108Z,99437.02
2023-04-21T10:20:55.872Z,99438.05
2023-04-21T10:23:30.071Z,99448.56
2023-04-21T10:26:06.848Z,99453.85
2023-04-21T10:29:06.663Z,99470.23
2023-04-21T10:31:35.181Z,99477.20
2023-04-21T10:34:06.818Z,99473.45
2023-04-21T10:36:36.463Z,99458.94
2023-04-21T10:39:04.921Z,99472.30
2023-04-21T10:41:36.287Z,99473.25
2023-04-21T10:44:12.189Z,99467.52
2023-04-21T10:46:41.553Z,99470.42
2023-04-21T10:49:11.455Z,99464.14
2023-04-21T10:51:58.378Z,99472.71
2023-04-21T10:54:27.320Z,99486.14
2023-04-21T10:56:57.198Z,99472.98
2023-04-21T10:59:26.591Z,99470.67
2023-04-21T11:01:55.248Z,99473.52
2023-04-21T11:04:24.211Z,99472.90
2023-04-21T11:07:12.468Z,99462.73
2023-04-21T11:09:42.034Z,99479.44
2023-04-21T11:12:13.645Z,99488.48
2023-04-21T11:14:43.520Z,99491.72
2023-04-21T11:17:19.201Z,99489.59
2023-04-21T11:19:54.272Z,99499.79
2023-04-21T11:22:24.282Z,99476.64
2023-04-21T11:24:57.156Z,99483.13
2023-04-21T11:27:29.930Z,99487.23
2023-04-21T11:29:58.333Z,99483.59
2023-04-21T11:32:26.713Z,99475.11
2023-04-21T11:34:54.837Z,99466.55
2023-04-21T11:37:29.237Z,99478.86
2023-04-21T11:39:59.033Z,99462.09
2023-04-21T11:42:27.300Z,99469.85
2023-04-21T11:44:56.825Z,99463.52
2023-04-21T11:47:26.904Z,99461.88
2023-04-21T11:50:01.168Z,99460.45
2023-04-21T11:52:34.572Z,99463.20
2023-04-21T11:55:04.039Z,99457.12
2023-04-21T11:57:33.064Z,99459.67
2023-04-21T12:00:02.381Z,99455.58
2023-04-21T12:02:33.810Z,99454.54
2023-04-21T12:05:02.582Z,99455.03
2023-04-21T12:07:36.712Z,99449.27
2023-04-21T12:10:23.092Z,99448.40
2023-04-21T12:12:51.894Z,99437.77
2023-04-21T12:15:21.849Z,99436.27
2023-04-21T12:17:54.413Z,99428.79
2023-04-21T12:20:25.138Z,99430.15
2023-04-21T12:22:53.705Z,99433.29
2023-04-21T12:25:22.073Z,99437.05
2023-04-21T12:27:54.467Z,99429.19
2023-04-21T12:30:22.475Z,99423.03
2023-04-21T12:32:52.467Z,99424.09
2023-04-21T12:35:25.789Z,99416.85
2023-04-21T12:37:56.056Z,99411.63
2023-04-21T12:40:24.222Z,99410.53
2023-04-21T12:42:52.711Z,99410.27
2023-04-21T12:45:20.859Z,99406.39
2023-04-21T12:47:49.245Z,99411.45
2023-04-21T12:50:17.761Z,99399.80
2023-04-21T12:52:46.019Z,99400.17
2023-04-21T12:55:14.311Z,99397.74
2023-04-21T12:57:42.803Z,99400.08
2023-04-21T13:02:54.448Z,99395.48
2023-04-21T13:05:22.767Z,99397.86
2023-04-21T13:07:50.968Z,99391.79
2023-04-21T13:10:19.233Z,99387.60
2023-04-21T13:12:47.724Z,99382.31
2023-04-21T13:15:15.996Z,99376.54
2023-04-21T13:17:44.270Z,99385.45
2023-04-21T13:20:12.466Z,99377.98
2023-04-21T13:22:41.455Z,99377.07
2023-04-21T13:25:09.927Z,99375.27
2023-04-21T13:27:40.117Z,99378.39
2023-04-21T13:30:10.649Z,99378.10
2023-04-21T13:32:39.794Z,99369.05
2023-04-21T13:35:11.725Z,99366.95
2023-04-21T13:37:40.853Z,99365.89
2023-04-21T13:40:10.278Z,99369.21
2023-04-21T13:42:39.184Z,99364.92
2023-04-21T13:52:46.045Z,99361.89
2023-04-21T13:55:14.875Z,99359.15
2023-04-21T13:57:42.977Z,99359.61
2023-04-21T14:00:12.219Z,99361.10
2023-04-21T14:02:42.178Z,99354.91
2023-04-21T14:05:11.178Z,99351.36
2023-04-21T14:07:41.813Z,99352.95
2023-04-21T14:10:12.165Z,99350.39
2023-04-21T14:12:40.658Z,99353.16
2023-04-21T14:15:09.325Z,99353.08
2023-04-21T14:17:37.593Z,99352.92
2023-04-21T14:20:07.474Z,99346.17
2023-04-21T14:22:36.165Z,99346.25
2023-04-21T14:25:04.663Z,99344.41
2023-04-21T14:27:34.574Z,99343.89
2023-04-21T14:30:03.091Z,99343.80
2023-04-21T14:32:31.902Z,99347.45
2023-04-21T14:35:03.359Z,99348.70
2023-04-21T14:37:31.808Z,99345.70
2023-04-21T14:40:00.194Z,99341.75
2023-04-21T14:42:28.399Z,99344.47
2023-04-21T14:44:56.449Z,99345.20
2023-04-21T14:47:24.765Z,99346.05
2023-04-21T14:49:55.586Z,99345.93
2023-04-21T14:52:27.302Z,99345.48
2023-04-21T14:54:55.556Z,99348.16
2023-04-21T14:57:24.340Z,99348.59
2023-04-21T14:59:52.856Z,99346.18
2023-04-21T15:02:21.477Z,99345.73
2023-04-21T15:04:50.129Z,99345.56
2023-04-21T15:07:23.298Z,99350.62
2023-04-21T15:09:52.585Z,99345.52
2023-04-21T15:12:21.095Z,99345.98
2023-04-21T15:14:49.136Z,99345.75
2023-04-21T15:17:17.534Z,99346.79
2023-04-21T15:19:45.835Z,99350.02
2023-04-21T15:22:15.421Z,99346.35
2023-04-21T15:24:44.020Z,99348.30
2023-04-21T15:27:12.410Z,99356.37
2023-04-21T15:29:40.546Z,99358.17
2023-04-21T15:32:08.940Z,99355.30
2023-04-21T15:34:37.097Z,99364.02
2023-04-21T15:37:05.707Z,99363.33
2023-04-21T15:39:34.326Z,99357.35
2023-04-21T15:42:04.574Z,99354.70
2023-04-21T15:44:34.303Z,99355.70
2023-04-21T15:47:03.153Z,99363.24
2023-04-21T15:49:31.750Z,99366.28
2023-04-21T15:52:00.019Z,99373.50
2023-04-21T15:54:28.422Z,99369.96
2023-04-21T15:56:57.728Z,99366.36
2023-04-21T15:59:26.479Z,99369.80
2023-04-21T16:01:57.172Z,99371.20
2023-04-21T16:04:25.522Z,99374.04
2023-04-21T16:06:54.037Z,99369.95
2023-04-21T16:09:22.765Z,99370.45
2023-04-21T16:11:50.913Z,99372.58
2023-04-21T16:14:18.957Z,99378.19
2023-04-21T16:16:47.408Z,99381.64
2023-04-21T16:19:16.648Z,99379.48
2023-04-21T16:21:50.960Z,99380.52
2023-04-21T16:24:19.525Z,99383.86
2023-04-21T16:26:47.747Z,99385.69
2023-04-21T16:29:16.589Z,99379.71
2023-04-21T16:31:44.961Z,99384.92
2023-04-21T16:34:14.043Z,99382.63
2023-04-21T16:36:42.192Z,99383.98
2023-04-21T16:39:10.366Z,99384.64
2023-04-21T16:41:38.608Z,99381.45
2023-04-21T16:44:06.972Z,99368.73
2023-04-21T16:46:35.606Z,99364.31
2023-04-21T16:49:03.942Z,99363.86
2023-04-21T16:51:32.708Z,99371.01
2023-04-21T16:54:00.793Z,99371.75
2023-04-21T16:56:29.439Z,99365.61
2023-04-21T16:58:57.507Z,99370.53
2023-04-21T17:01:25.641Z,99367.96
2023-04-21T17:03:54.159Z,99365.04
2023-04-21T17:06:22.899Z,99355.85
2023-04-21T17:08:52.354Z,99355.98
2023-04-21T17:11:20.739Z,99356.02
2023-04-21T17:13:48.687Z,99353.94
2023-04-21T17:16:17.241Z,99356.52
2023-04-21T17:18:53.235Z,99356.57
2023-04-21T17:21:21.849Z,99356.79
2023-04-21T17:23:50.525Z,99358.91
2023-04-21T17:26:18.830Z,99359.05
2023-04-21T17:28:47.296Z,99360.05
2023-04-21T17:31:16.328Z,99364.88
2023-04-21T17:33:45.778Z,99368.52
2023-04-21T17:36:44.428Z,99371.23
2023-04-21T17:39:26.988Z,99376.60
2023-04-21T17:41:55.060Z,99380.95
2023-04-21T17:44:23.549Z,99375.90
2023-04-21T17:46:52.451Z,99374.44
2023-04-21T17:49:23.177Z,99381.14
2023-04-21T17:51:51.886Z,99390.05
2023-04-21T17:54:20.266Z,99398.46
2023-04-21T17:56:50.540Z,99398.89
2023-04-21T17:59:19.044Z,99391.20
2023-04-21T18:01:47.281Z,99381.73
2023-04-21T18:04:17.175Z,99385.01
2023-04-21T18:06:45.592Z,99395.59
2023-04-21T18:09:13.737Z,99402.28
2023-04-21T18:11:41.854Z,99402.02
2023-04-21T18:14:10.460Z,99403.11
2023-04-21T18:16:38.734Z,99405.66
2023-04-21T18:19:11.629Z,99405.41
2023-04-21T18:21:40.238Z,99403.04
2023-04-21T18:24:08.327Z,99395.27
2023-04-21T18:26:36.837Z,99389.59
2023-04-21T18:29:04.983Z,99383.27
2023-04-21T18:31:33.550Z,99390.98
2023-04-21T18:34:01.773Z,99390.83
2023-04-21T18:36:32.930Z,99393.09
2023-04-21T18:39:01.954Z,99388.61
2023-04-21T18:41:30.777Z,99386.23
2023-04-21T18:43:58.924Z,99388.48
2023-04-21T18:46:27.303Z,99386.17
2023-04-21T18:48:55.599Z,99388.09
2023-04-21T18:51:24.267Z,99390.96
2023-04-21T18:53:52.379Z,99386.52
2023-04-21T18:56:20.863Z,99383.86
2023-04-21T18:58:49.099Z,99385.13
2023-04-21T19:01:17.166Z,99382.95
2023-04-21T19:03:45.739Z,99382.92
2023-04-21T19:06:14.330Z,99383.65
2023-04-21T19:08:43.210Z,99382.28
2023-04-21T19:11:13.063Z,99377.20
2023-04-21T19:13:43.464Z,99376.20
2023-04-21T19:16:11.909Z,99379.90
2023-04-21T19:18:40.675Z,99383.55
2023-04-21T19:21:13.016Z,99383.95
2023-04-21T19:23:41.965Z,99377.73
2023-04-21T19:26:13.364Z,99381.80
2023-04-21T19:28:42.970Z,99386.12
2023-04-21T19:31:11.248Z,99387.77
2023-04-21T19:33:39.512Z,99391.17
2023-04-21T19:36:07.904Z,99386.17
2023-04-21T19:38:36.396Z,99381.26
2023-04-21T19:41:05.917Z,99379.42
2023-04-21T19:43:34.171Z,99378.69
2023-04-21T19:46:02.620Z,99378.21
2023-04-21T19:48:31.665Z,99377.73
2023-04-21T19:51:01.255Z,99378.58
2023-04-21T19:53:30.147Z,99383.13
2023-04-21T19:55:58.733Z,99381.80
2023-04-21T19:58:39.329Z,99372.90
2023-04-21T20:01:10.443Z,99372.10
2023-04-21T20:03:39.643Z,99370.59
2023-04-21T20:06:08.947Z,99369.47
2023-04-21T20:08:37.575Z,99361.63
2023-04-21T20:11:06.891Z,99355.91
2023-04-21T20:13:36.089Z,99349.89
2023-04-21T20:16:04.292Z,99348.42
2023-04-21T20:18:33.960Z,99352.05
2023-04-21T20:21:02.397Z,99360.27
2023-04-21T20:23:31.192Z,99368.77
2023-04-21T20:25:59.398Z,99375.13
2023-04-21T20:28:27.953Z,99371.81
2023-04-21T20:30:57.106Z,99371.59
2023-04-21T20:33:25.304Z,99368.78
2023-04-21T20:35:53.708Z,99368.91
2023-04-21T20:38:24.553Z,99368.27
2023-04-21T20:40:53.448Z,99373.34
2023-04-21T20:43:22.459Z,99374.02
2023-04-21T20:45:50.870Z,99370.27
2023-04-21T20:48:19.921Z,99367.96
2023-04-21T20:50:50.644Z,99362.19
2023-04-21T20:53:19.743Z,99356.93
2023-04-21T20:55:48.639Z,99353.45
2023-04-21T20:58:17.102Z,99349.23
2023-04-21T21:00:45.453Z,99351.14
2023-04-21T21:03:14.277Z,99352.80
2023-04-21T21:05:42.675Z,99348.89
2023-04-21T21:08:10.773Z,99352.51
2023-04-21T21:10:39.133Z,99351.84
2023-04-21T21:13:07.296Z,99352.39
2023-04-21T21:15:35.908Z,99352.80
2023-04-21T21:18:04.454Z,99351.02
2023-04-21T21:20:33.334Z,99346.01
2023-04-21T21:23:01.536Z,99343.87
2023-04-21T21:25:29.733Z,99344.61
2023-04-21T21:27:57.933Z,99345.50
2023-04-21T21:30:26.274Z,99353.88
2023-04-21T21:32:55.585Z,99351.85
2023-04-21T21:35:23.968Z,99349.22
2023-04-21T21:37:52.326Z,99348.94
2023-04-21T21:40:21.071Z,99347.42
2023-04-21T21:42:49.817Z,99349.45
2023-04-21T21:45:17.954Z,99346.45
2023-04-21T21:47:46.215Z,99343.51
2023-04-21T21:50:14.579Z,99342.90
2023-04-21T21:52:42.850Z,99344.05
2023-04-21T21:55:11.155Z,99341.01
2023-04-21T21:57:39.791Z,99346.48
2023-04-21T22:00:12.407Z,99348.29
2023-04-21T22:02:42.390Z,99351.12
2023-04-21T22:05:10.624Z,99349.94
2023-04-21T22:07:43.176Z,99350.17
2023-04-21T22:10:11.974Z,99349.79
2023-04-21T22:12:40.308Z,99350.08
2023-04-21T22:15:09.505Z,99353.63
2023-04-21T22:17:38.164Z,99351.46
2023-04-21T22:20:08.546Z,99343.80
2023-04-21T22:22:36.733Z,99348.06
2023-04-21T22:25:05.792Z,99349.02
2023-04-21T22:27:34.389Z,99346.73
2023-04-21T22:30:03.823Z,99351.05
2023-04-21T22:32:32.783Z,99348.26
2023-04-21T22:35:01.620Z,99348.11
2023-04-21T22:37:30.356Z,99346.34
2023-04-21T22:39:58.942Z,99343.27
2023-04-21T22:42:27.248Z,99342.44
2023-04-21T22:44:55.502Z,99339.75
2023-04-21T22:47:23.906Z,99342.60
2023-04-21T22:49:53.535Z,99338.69
2023-04-21T22:52:21.499Z,99343.11
2023-04-21T22:54:49.739Z,99343.64
2023-04-21T22:57:17.836Z,99341.52
2023-04-21T22:59:45.990Z,99342.27
2023-04-21T23:02:14.167Z,99337.32
2023-04-21T23:04:42.460Z,99336.03
2023-04-21T23:07:10.712Z,99334.58
2023-04-21T23:09:40.049Z,99333.34
2023-04-21T23:12:08.853Z,99335.40
2023-04-21T23:14:37.294Z,99331.86
2023-04-21T23:17:05.563Z,99328.42
2023-04-21T23:19:33.770Z,99334.98
2023-04-21T23:22:02.022Z,99334.95
2023-04-21T23:24:30.259Z,99336.70
2023-04-21T23:26:58.506Z,99336.42
2023-04-21T23:29:26.543Z,99333.98
2023-04-21T23:31:54.856Z,99333.92
2023-04-21T23:34:23.205Z,99334.18
2023-04-21T23:36:51.583Z,99331.69
2023-04-21T23:39:21.742Z,99334.14
2023-04-21T23:41:49.838Z,99329.38
2023-04-21T23:44:18.079Z,99328.67
2023-04-21T23:46:46.339Z,99327.34
2023-04-21T23:49:14.713Z,99324.77
2023-04-21T23:51:42.785Z,99328.57
2023-04-21T23:54:10.964Z,99324.16
2023-04-21T23:56:39.095Z,99326.52
2023-04-21T23:59:07.480Z,99325.86
